sensor_id;sensor_type;location;lat;lon;timestamp;P1;durP1;ratioP1;P2;durP2;ratioP2
75005;SDS011;63553;51.814;4.600;2023-05-17T00:01:40;8.15;;;2.13;;
75005;SDS011;63553;51.814;4.600;2023-05-17T00:04:05;9.63;;;2.60;;
75005;SDS011;63553;51.814;4.600;2023-05-17T00:06:31;10.23;;;2.60;;
75005;SDS011;63553;51.814;4.600;2023-05-17T00:08:56;5.50;;;2.45;;
75005;SDS011;63553;51.814;4.600;2023-05-17T00:11:21;10.40;;;2.40;;
75005;SDS011;63553;51.814;4.600;2023-05-17T00:13:47;4.63;;;2.17;;
75005;SDS011;63553;51.814;4.600;2023-05-17T00:16:12;11.10;;;2.63;;
75005;SDS011;63553;51.814;4.600;2023-05-17T00:18:37;7.30;;;2.43;;
75005;SDS011;63553;51.814;4.600;2023-05-17T00:21:03;8.02;;;2.40;;
75005;SDS011;63553;51.814;4.600;2023-05-17T00:23:28;5.40;;;2.27;;
75005;SDS011;63553;51.814;4.600;2023-05-17T00:25:53;5.57;;;2.57;;
75005;SDS011;63553;51.814;4.600;2023-05-17T00:28:19;7.15;;;2.17;;
75005;SDS011;63553;51.814;4.600;2023-05-17T00:30:44;14.48;;;2.88;;
75005;SDS011;63553;51.814;4.600;2023-05-17T00:33:10;13.30;;;2.20;;
75005;SDS011;63553;51.814;4.600;2023-05-17T00:35:35;6.72;;;2.30;;
75005;SDS011;63553;51.814;4.600;2023-05-17T00:38:00;8.13;;;3.03;;
75005;SDS011;63553;51.814;4.600;2023-05-17T00:40:26;8.50;;;2.77;;
75005;SDS011;63553;51.814;4.600;2023-05-17T00:42:51;9.90;;;2.20;;
75005;SDS011;63553;51.814;4.600;2023-05-17T00:45:16;6.37;;;2.63;;
75005;SDS011;63553;51.814;4.600;2023-05-17T00:47:41;7.47;;;2.43;;
75005;SDS011;63553;51.814;4.600;2023-05-17T00:50:07;7.73;;;2.47;;
75005;SDS011;63553;51.814;4.600;2023-05-17T00:52:33;6.15;;;2.47;;
75005;SDS011;63553;51.814;4.600;2023-05-17T00:54:59;5.78;;;2.10;;
75005;SDS011;63553;51.814;4.600;2023-05-17T00:57:25;12.40;;;2.92;;
75005;SDS011;63553;51.814;4.600;2023-05-17T00:59:50;7.70;;;2.55;;
75005;SDS011;63553;51.814;4.600;2023-05-17T01:02:16;9.15;;;2.95;;
75005;SDS011;63553;51.814;4.600;2023-05-17T01:04:42;6.85;;;2.30;;
75005;SDS011;63553;51.814;4.600;2023-05-17T01:07:08;5.25;;;2.17;;
75005;SDS011;63553;51.814;4.600;2023-05-17T01:09:34;7.60;;;2.42;;
75005;SDS011;63553;51.814;4.600;2023-05-17T01:14:45;7.00;;;2.67;;
75005;SDS011;63553;51.814;4.600;2023-05-17T01:17:28;7.00;;;2.60;;
75005;SDS011;63553;51.814;4.600;2023-05-17T01:20:04;6.75;;;2.63;;
75005;SDS011;63553;51.814;4.600;2023-05-17T01:22:35;6.60;;;2.40;;
75005;SDS011;63553;51.814;4.600;2023-05-17T01:30:50;10.05;;;3.20;;
75005;SDS011;63553;51.814;4.600;2023-05-17T01:33:17;9.07;;;2.80;;
75005;SDS011;63553;51.814;4.600;2023-05-17T01:35:44;7.50;;;2.38;;
75005;SDS011;63553;51.814;4.600;2023-05-17T01:38:10;11.00;;;3.33;;
75005;SDS011;63553;51.814;4.600;2023-05-17T01:40:35;9.83;;;2.53;;
75005;SDS011;63553;51.814;4.600;2023-05-17T01:43:11;10.93;;;3.08;;
75005;SDS011;63553;51.814;4.600;2023-05-17T01:48:48;7.15;;;2.67;;
75005;SDS011;63553;51.814;4.600;2023-05-17T01:51:20;10.55;;;2.70;;
75005;SDS011;63553;51.814;4.600;2023-05-17T01:53:56;8.70;;;3.53;;
75005;SDS011;63553;51.814;4.600;2023-05-17T01:56:26;8.10;;;2.85;;
75005;SDS011;63553;51.814;4.600;2023-05-17T01:58:57;10.60;;;2.83;;
75005;SDS011;63553;51.814;4.600;2023-05-17T02:01:23;10.45;;;2.90;;
75005;SDS011;63553;51.814;4.600;2023-05-17T02:03:52;9.75;;;3.13;;
75005;SDS011;63553;51.814;4.600;2023-05-17T02:06:18;8.73;;;2.78;;
75005;SDS011;63553;51.814;4.600;2023-05-17T02:08:43;12.47;;;3.67;;
75005;SDS011;63553;51.814;4.600;2023-05-17T02:11:09;10.90;;;3.33;;
75005;SDS011;63553;51.814;4.600;2023-05-17T02:13:34;8.32;;;2.97;;
75005;SDS011;63553;51.814;4.600;2023-05-17T02:16:00;12.73;;;3.33;;
75005;SDS011;63553;51.814;4.600;2023-05-17T02:18:26;16.38;;;3.42;;
75005;SDS011;63553;51.814;4.600;2023-05-17T02:20:52;9.68;;;3.00;;
75005;SDS011;63553;51.814;4.600;2023-05-17T02:23:18;13.80;;;3.92;;
75005;SDS011;63553;51.814;4.600;2023-05-17T02:25:43;11.57;;;3.05;;
75005;SDS011;63553;51.814;4.600;2023-05-17T02:28:08;9.15;;;3.03;;
75005;SDS011;63553;51.814;4.600;2023-05-17T02:30:34;6.72;;;2.38;;
75005;SDS011;63553;51.814;4.600;2023-05-17T02:32:59;10.25;;;3.30;;
75005;SDS011;63553;51.814;4.600;2023-05-17T02:35:24;9.47;;;3.83;;
75005;SDS011;63553;51.814;4.600;2023-05-17T02:37:50;11.43;;;3.10;;
75005;SDS011;63553;51.814;4.600;2023-05-17T02:40:16;15.23;;;3.35;;
75005;SDS011;63553;51.814;4.600;2023-05-17T02:42:41;9.07;;;2.95;;
75005;SDS011;63553;51.814;4.600;2023-05-17T02:45:06;8.10;;;2.93;;
75005;SDS011;63553;51.814;4.600;2023-05-17T02:47:32;9.05;;;3.00;;
75005;SDS011;63553;51.814;4.600;2023-05-17T02:49:57;7.03;;;2.70;;
75005;SDS011;63553;51.814;4.600;2023-05-17T02:52:22;11.03;;;3.10;;
75005;SDS011;63553;51.814;4.600;2023-05-17T02:54:48;7.30;;;2.67;;
75005;SDS011;63553;51.814;4.600;2023-05-17T02:57:13;13.85;;;3.40;;
75005;SDS011;63553;51.814;4.600;2023-05-17T02:59:38;10.90;;;3.07;;
75005;SDS011;63553;51.814;4.600;2023-05-17T03:02:04;14.73;;;3.23;;
75005;SDS011;63553;51.814;4.600;2023-05-17T03:04:29;9.83;;;2.80;;
75005;SDS011;63553;51.814;4.600;2023-05-17T03:06:55;9.88;;;3.05;;
75005;SDS011;63553;51.814;4.600;2023-05-17T03:09:21;7.30;;;2.80;;
75005;SDS011;63553;51.814;4.600;2023-05-17T03:11:46;10.43;;;3.40;;
75005;SDS011;63553;51.814;4.600;2023-05-17T03:14:12;13.20;;;3.05;;
75005;SDS011;63553;51.814;4.600;2023-05-17T03:16:37;11.95;;;3.00;;
75005;SDS011;63553;51.814;4.600;2023-05-17T03:19:02;14.30;;;3.30;;
75005;SDS011;63553;51.814;4.600;2023-05-17T03:21:28;11.18;;;2.67;;
75005;SDS011;63553;51.814;4.600;2023-05-17T03:23:53;7.70;;;2.47;;
75005;SDS011;63553;51.814;4.600;2023-05-17T03:26:19;10.20;;;2.93;;
75005;SDS011;63553;51.814;4.600;2023-05-17T03:28:44;5.35;;;2.65;;
75005;SDS011;63553;51.814;4.600;2023-05-17T03:31:09;12.95;;;3.17;;
75005;SDS011;63553;51.814;4.600;2023-05-17T03:33:35;10.32;;;2.97;;
75005;SDS011;63553;51.814;4.600;2023-05-17T03:36:01;9.88;;;2.40;;
75005;SDS011;63553;51.814;4.600;2023-05-17T03:38:26;10.30;;;3.03;;
75005;SDS011;63553;51.814;4.600;2023-05-17T03:40:52;7.88;;;2.83;;
75005;SDS011;63553;51.814;4.600;2023-05-17T03:43:17;9.52;;;3.20;;
75005;SDS011;63553;51.814;4.600;2023-05-17T03:45:42;11.07;;;3.37;;
75005;SDS011;63553;51.814;4.600;2023-05-17T03:48:08;10.05;;;2.75;;
75005;SDS011;63553;51.814;4.600;2023-05-17T03:50:33;7.70;;;3.03;;
75005;SDS011;63553;51.814;4.600;2023-05-17T03:52:58;9.10;;;3.45;;
75005;SDS011;63553;51.814;4.600;2023-05-17T03:55:24;6.43;;;2.42;;
75005;SDS011;63553;51.814;4.600;2023-05-17T03:57:49;8.30;;;2.60;;
75005;SDS011;63553;51.814;4.600;2023-05-17T04:00:15;14.67;;;2.93;;
75005;SDS011;63553;51.814;4.600;2023-05-17T04:02:45;8.02;;;2.70;;
75005;SDS011;63553;51.814;4.600;2023-05-17T04:05:11;9.43;;;2.63;;
75005;SDS011;63553;51.814;4.600;2023-05-17T04:07:37;6.50;;;2.90;;
75005;SDS011;63553;51.814;4.600;2023-05-17T04:10:03;7.60;;;2.28;;
75005;SDS011;63553;51.814;4.600;2023-05-17T04:12:28;6.28;;;2.47;;
75005;SDS011;63553;51.814;4.600;2023-05-17T04:14:54;8.55;;;2.70;;
75005;SDS011;63553;51.814;4.600;2023-05-17T04:17:19;8.38;;;2.83;;
75005;SDS011;63553;51.814;4.600;2023-05-17T04:19:45;11.80;;;2.70;;
75005;SDS011;63553;51.814;4.600;2023-05-17T04:22:10;10.97;;;2.83;;
75005;SDS011;63553;51.814;4.600;2023-05-17T04:24:35;5.70;;;2.83;;
75005;SDS011;63553;51.814;4.600;2023-05-17T04:27:01;9.33;;;3.27;;
75005;SDS011;63553;51.814;4.600;2023-05-17T04:29:28;4.95;;;1.90;;
75005;SDS011;63553;51.814;4.600;2023-05-17T04:31:53;9.50;;;2.90;;
75005;SDS011;63553;51.814;4.600;2023-05-17T04:34:19;7.22;;;2.25;;
75005;SDS011;63553;51.814;4.600;2023-05-17T04:36:46;5.35;;;2.58;;
75005;SDS011;63553;51.814;4.600;2023-05-17T04:39:11;8.20;;;2.42;;
75005;SDS011;63553;51.814;4.600;2023-05-17T04:41:37;9.03;;;3.37;;
75005;SDS011;63553;51.814;4.600;2023-05-17T04:44:02;8.27;;;3.40;;
75005;SDS011;63553;51.814;4.600;2023-05-17T04:46:28;7.45;;;3.10;;
75005;SDS011;63553;51.814;4.600;2023-05-17T04:48:53;7.32;;;2.85;;
75005;SDS011;63553;51.814;4.600;2023-05-17T04:51:20;8.93;;;2.63;;
75005;SDS011;63553;51.814;4.600;2023-05-17T04:53:45;6.90;;;2.60;;
75005;SDS011;63553;51.814;4.600;2023-05-17T04:56:11;10.45;;;3.00;;
75005;SDS011;63553;51.814;4.600;2023-05-17T04:58:36;9.37;;;2.53;;
75005;SDS011;63553;51.814;4.600;2023-05-17T05:01:01;11.25;;;3.00;;
75005;SDS011;63553;51.814;4.600;2023-05-17T05:03:27;9.00;;;2.35;;
75005;SDS011;63553;51.814;4.600;2023-05-17T05:05:52;6.30;;;2.08;;
75005;SDS011;63553;51.814;4.600;2023-05-17T05:08:18;7.00;;;2.23;;
75005;SDS011;63553;51.814;4.600;2023-05-17T05:10:43;7.17;;;2.00;;
75005;SDS011;63553;51.814;4.600;2023-05-17T05:13:08;6.37;;;1.93;;
75005;SDS011;63553;51.814;4.600;2023-05-17T05:15:34;8.20;;;1.80;;
75005;SDS011;63553;51.814;4.600;2023-05-17T05:17:59;5.83;;;2.10;;
75005;SDS011;63553;51.814;4.600;2023-05-17T05:20:24;6.50;;;2.03;;
75005;SDS011;63553;51.814;4.600;2023-05-17T05:22:49;11.10;;;2.20;;
75005;SDS011;63553;51.814;4.600;2023-05-17T05:25:15;4.18;;;1.90;;
75005;SDS011;63553;51.814;4.600;2023-05-17T05:27:41;14.00;;;2.13;;
75005;SDS011;63553;51.814;4.600;2023-05-17T05:30:06;8.83;;;1.77;;
75005;SDS011;63553;51.814;4.600;2023-05-17T05:32:32;5.63;;;2.20;;
75005;SDS011;63553;51.814;4.600;2023-05-17T05:34:58;4.60;;;2.25;;
75005;SDS011;63553;51.814;4.600;2023-05-17T05:37:23;5.63;;;1.80;;
75005;SDS011;63553;51.814;4.600;2023-05-17T05:39:49;5.82;;;1.95;;
75005;SDS011;63553;51.814;4.600;2023-05-17T05:42:15;7.43;;;2.38;;
75005;SDS011;63553;51.814;4.600;2023-05-17T05:44:40;4.82;;;1.88;;
75005;SDS011;63553;51.814;4.600;2023-05-17T05:47:05;6.30;;;2.00;;
75005;SDS011;63553;51.814;4.600;2023-05-17T05:49:31;6.73;;;1.70;;
75005;SDS011;63553;51.814;4.600;2023-05-17T05:51:56;7.35;;;2.15;;
75005;SDS011;63553;51.814;4.600;2023-05-17T05:54:21;7.03;;;1.85;;
75005;SDS011;63553;51.814;4.600;2023-05-17T05:56:47;5.00;;;1.92;;
75005;SDS011;63553;51.814;4.600;2023-05-17T05:59:12;2.10;;;1.67;;
75005;SDS011;63553;51.814;4.600;2023-05-17T06:01:38;8.87;;;1.97;;
75005;SDS011;63553;51.814;4.600;2023-05-17T06:04:03;8.65;;;2.47;;
75005;SDS011;63553;51.814;4.600;2023-05-17T06:06:28;4.85;;;2.00;;
75005;SDS011;63553;51.814;4.600;2023-05-17T06:08:55;7.30;;;2.30;;
75005;SDS011;63553;51.814;4.600;2023-05-17T06:11:20;3.92;;;1.67;;
75005;SDS011;63553;51.814;4.600;2023-05-17T06:13:46;4.50;;;1.85;;
75005;SDS011;63553;51.814;4.600;2023-05-17T06:16:11;7.15;;;1.98;;
75005;SDS011;63553;51.814;4.600;2023-05-17T06:18:37;4.32;;;1.65;;
75005;SDS011;63553;51.814;4.600;2023-05-17T06:21:02;6.70;;;2.00;;
75005;SDS011;63553;51.814;4.600;2023-05-17T06:23:27;7.65;;;1.95;;
75005;SDS011;63553;51.814;4.600;2023-05-17T06:25:53;7.47;;;1.60;;
75005;SDS011;63553;51.814;4.600;2023-05-17T06:28:18;6.63;;;1.57;;
75005;SDS011;63553;51.814;4.600;2023-05-17T06:30:43;4.37;;;1.70;;
75005;SDS011;63553;51.814;4.600;2023-05-17T06:33:08;6.10;;;1.90;;
75005;SDS011;63553;51.814;4.600;2023-05-17T06:35:34;5.40;;;1.98;;
75005;SDS011;63553;51.814;4.600;2023-05-17T06:38:00;6.15;;;1.95;;
75005;SDS011;63553;51.814;4.600;2023-05-17T06:40:25;7.87;;;2.03;;
75005;SDS011;63553;51.814;4.600;2023-05-17T06:42:50;5.73;;;1.83;;
75005;SDS011;63553;51.814;4.600;2023-05-17T06:45:16;3.73;;;1.20;;
75005;SDS011;63553;51.814;4.600;2023-05-17T06:47:41;3.83;;;1.60;;
75005;SDS011;63553;51.814;4.600;2023-05-17T06:50:07;5.80;;;1.77;;
75005;SDS011;63553;51.814;4.600;2023-05-17T06:52:33;6.03;;;1.63;;
75005;SDS011;63553;51.814;4.600;2023-05-17T06:54:59;6.32;;;1.40;;
75005;SDS011;63553;51.814;4.600;2023-05-17T06:57:24;5.25;;;1.75;;
75005;SDS011;63553;51.814;4.600;2023-05-17T06:59:50;4.32;;;1.60;;
75005;SDS011;63553;51.814;4.600;2023-05-17T07:02:16;5.50;;;1.70;;
75005;SDS011;63553;51.814;4.600;2023-05-17T07:04:41;3.55;;;1.42;;
75005;SDS011;63553;51.814;4.600;2023-05-17T07:07:07;3.70;;;1.70;;
75005;SDS011;63553;51.814;4.600;2023-05-17T07:09:32;4.03;;;1.60;;
75005;SDS011;63553;51.814;4.600;2023-05-17T07:11:57;7.60;;;1.90;;
75005;SDS011;63553;51.814;4.600;2023-05-17T07:14:22;5.37;;;1.73;;
75005;SDS011;63553;51.814;4.600;2023-05-17T07:16:48;6.83;;;1.70;;
75005;SDS011;63553;51.814;4.600;2023-05-17T07:19:13;6.30;;;1.87;;
75005;SDS011;63553;51.814;4.600;2023-05-17T07:21:39;6.03;;;1.58;;
75005;SDS011;63553;51.814;4.600;2023-05-17T07:24:05;3.83;;;1.60;;
75005;SDS011;63553;51.814;4.600;2023-05-17T07:26:31;3.08;;;1.60;;
75005;SDS011;63553;51.814;4.600;2023-05-17T07:28:56;4.30;;;1.60;;
75005;SDS011;63553;51.814;4.600;2023-05-17T07:31:21;5.83;;;1.77;;
75005;SDS011;63553;51.814;4.600;2023-05-17T07:33:47;6.78;;;1.80;;
75005;SDS011;63553;51.814;4.600;2023-05-17T07:36:12;4.57;;;1.58;;
75005;SDS011;63553;51.814;4.600;2023-05-17T07:38:37;6.87;;;1.90;;
75005;SDS011;63553;51.814;4.600;2023-05-17T07:41:03;5.73;;;1.70;;
75005;SDS011;63553;51.814;4.600;2023-05-17T07:45:58;6.77;;;2.00;;
75005;SDS011;63553;51.814;4.600;2023-05-17T07:48:23;5.33;;;1.83;;
75005;SDS011;63553;51.814;4.600;2023-05-17T07:50:49;4.32;;;1.67;;
75005;SDS011;63553;51.814;4.600;2023-05-17T07:53:14;5.00;;;2.10;;
75005;SDS011;63553;51.814;4.600;2023-05-17T07:55:40;3.45;;;1.70;;
75005;SDS011;63553;51.814;4.600;2023-05-17T07:58:05;5.03;;;2.03;;
75005;SDS011;63553;51.814;4.600;2023-05-17T08:00:30;4.72;;;1.40;;
75005;SDS011;63553;51.814;4.600;2023-05-17T08:02:57;6.63;;;1.67;;
75005;SDS011;63553;51.814;4.600;2023-05-17T08:05:22;4.25;;;1.90;;
75005;SDS011;63553;51.814;4.600;2023-05-17T08:07:47;5.55;;;1.35;;
75005;SDS011;63553;51.814;4.600;2023-05-17T08:10:13;4.93;;;1.73;;
75005;SDS011;63553;51.814;4.600;2023-05-17T08:12:38;7.65;;;1.80;;
75005;SDS011;63553;51.814;4.600;2023-05-17T08:15:04;7.20;;;1.98;;
75005;SDS011;63553;51.814;4.600;2023-05-17T08:17:30;6.00;;;1.60;;
75005;SDS011;63553;51.814;4.600;2023-05-17T08:19:55;5.27;;;1.47;;
75005;SDS011;63553;51.814;4.600;2023-05-17T08:22:20;5.47;;;2.00;;
75005;SDS011;63553;51.814;4.600;2023-05-17T08:24:46;8.00;;;1.73;;
75005;SDS011;63553;51.814;4.600;2023-05-17T08:27:11;6.28;;;1.50;;
75005;SDS011;63553;51.814;4.600;2023-05-17T08:29:37;4.55;;;1.50;;
75005;SDS011;63553;51.814;4.600;2023-05-17T08:32:02;8.63;;;1.75;;
75005;SDS011;63553;51.814;4.600;2023-05-17T08:34:28;4.70;;;1.85;;
75005;SDS011;63553;51.814;4.600;2023-05-17T08:36:53;3.73;;;1.50;;
75005;SDS011;63553;51.814;4.600;2023-05-17T08:39:19;7.80;;;1.98;;
75005;SDS011;63553;51.814;4.600;2023-05-17T08:41:48;3.35;;;1.63;;
75005;SDS011;63553;51.814;4.600;2023-05-17T08:44:14;5.47;;;1.48;;
75005;SDS011;63553;51.814;4.600;2023-05-17T08:46:42;1.67;;;1.00;;
75005;SDS011;63553;51.814;4.600;2023-05-17T08:49:08;5.15;;;1.33;;
75005;SDS011;63553;51.814;4.600;2023-05-17T08:51:36;3.85;;;1.35;;
75005;SDS011;63553;51.814;4.600;2023-05-17T08:54:03;3.92;;;1.30;;
75005;SDS011;63553;51.814;4.600;2023-05-17T08:56:30;3.47;;;1.40;;
75005;SDS011;63553;51.814;4.600;2023-05-17T08:58:59;4.50;;;1.38;;
75005;SDS011;63553;51.814;4.600;2023-05-17T09:01:25;3.65;;;1.30;;
75005;SDS011;63553;51.814;4.600;2023-05-17T09:03:52;6.63;;;1.52;;
75005;SDS011;63553;51.814;4.600;2023-05-17T09:06:21;4.03;;;1.20;;
75005;SDS011;63553;51.814;4.600;2023-05-17T09:08:51;3.53;;;1.10;;
75005;SDS011;63553;51.814;4.600;2023-05-17T09:11:28;2.58;;;1.15;;
75005;SDS011;63553;51.814;4.600;2023-05-17T09:13:57;2.90;;;1.05;;
75005;SDS011;63553;51.814;4.600;2023-05-17T09:16:24;5.07;;;1.10;;
75005;SDS011;63553;51.814;4.600;2023-05-17T09:18:52;3.78;;;1.05;;
75005;SDS011;63553;51.814;4.600;2023-05-17T09:21:20;9.13;;;1.35;;
75005;SDS011;63553;51.814;4.600;2023-05-17T09:23:47;2.90;;;1.10;;
75005;SDS011;63553;51.814;4.600;2023-05-17T09:26:12;2.30;;;1.15;;
75005;SDS011;63553;51.814;4.600;2023-05-17T09:28:38;1.83;;;1.20;;
75005;SDS011;63553;51.814;4.600;2023-05-17T09:31:06;3.67;;;1.48;;
75005;SDS011;63553;51.814;4.600;2023-05-17T09:33:32;2.53;;;1.00;;
75005;SDS011;63553;51.814;4.600;2023-05-17T09:35:59;4.20;;;1.20;;
75005;SDS011;63553;51.814;4.600;2023-05-17T09:38:28;4.38;;;1.40;;
75005;SDS011;63553;51.814;4.600;2023-05-17T09:40:53;4.18;;;1.05;;
75005;SDS011;63553;51.814;4.600;2023-05-17T09:43:22;2.85;;;1.10;;
75005;SDS011;63553;51.814;4.600;2023-05-17T09:45:55;3.10;;;1.13;;
75005;SDS011;63553;51.814;4.600;2023-05-17T09:48:24;2.00;;;0.98;;
75005;SDS011;63553;51.814;4.600;2023-05-17T09:50:51;3.33;;;1.17;;
75005;SDS011;63553;51.814;4.600;2023-05-17T09:53:35;4.30;;;1.20;;
75005;SDS011;63553;51.814;4.600;2023-05-17T09:56:04;2.88;;;1.10;;
75005;SDS011;63553;51.814;4.600;2023-05-17T09:58:30;8.02;;;1.50;;
75005;SDS011;63553;51.814;4.600;2023-05-17T10:01:02;5.68;;;1.80;;
75005;SDS011;63553;51.814;4.600;2023-05-17T10:03:30;4.25;;;1.50;;
75005;SDS011;63553;51.814;4.600;2023-05-17T10:05:58;3.25;;;1.55;;
75005;SDS011;63553;51.814;4.600;2023-05-17T10:08:26;2.95;;;1.48;;
75005;SDS011;63553;51.814;4.600;2023-05-17T10:10:57;2.20;;;0.82;;
75005;SDS011;63553;51.814;4.600;2023-05-17T10:13:29;2.08;;;1.15;;
75005;SDS011;63553;51.814;4.600;2023-05-17T10:15:59;3.25;;;1.40;;
75005;SDS011;63553;51.814;4.600;2023-05-17T10:18:25;4.72;;;1.63;;
75005;SDS011;63553;51.814;4.600;2023-05-17T10:20:51;3.33;;;1.35;;
75005;SDS011;63553;51.814;4.600;2023-05-17T10:23:17;6.18;;;1.33;;
75005;SDS011;63553;51.814;4.600;2023-05-17T10:25:44;5.47;;;1.40;;
75005;SDS011;63553;51.814;4.600;2023-05-17T10:28:10;3.53;;;1.23;;
75005;SDS011;63553;51.814;4.600;2023-05-17T10:30:38;2.90;;;1.40;;
75005;SDS011;63553;51.814;4.600;2023-05-17T10:33:04;4.25;;;1.38;;
75005;SDS011;63553;51.814;4.600;2023-05-17T10:35:31;2.50;;;1.23;;
75005;SDS011;63553;51.814;4.600;2023-05-17T10:37:58;5.68;;;1.80;;
75005;SDS011;63553;51.814;4.600;2023-05-17T10:40:23;4.37;;;1.20;;
75005;SDS011;63553;51.814;4.600;2023-05-17T10:42:49;4.88;;;1.50;;
75005;SDS011;63553;51.814;4.600;2023-05-17T10:45:19;2.97;;;1.13;;
75005;SDS011;63553;51.814;4.600;2023-05-17T10:47:46;6.97;;;1.52;;
75005;SDS011;63553;51.814;4.600;2023-05-17T10:50:14;4.75;;;1.52;;
75005;SDS011;63553;51.814;4.600;2023-05-17T10:52:47;5.45;;;1.67;;
75005;SDS011;63553;51.814;4.600;2023-05-17T10:55:16;4.35;;;1.33;;
75005;SDS011;63553;51.814;4.600;2023-05-17T10:57:43;3.85;;;1.20;;
75005;SDS011;63553;51.814;4.600;2023-05-17T11:00:08;4.47;;;1.47;;
75005;SDS011;63553;51.814;4.600;2023-05-17T11:02:44;13.02;;;1.52;;
75005;SDS011;63553;51.814;4.600;2023-05-17T11:05:32;5.45;;;1.30;;
75005;SDS011;63553;51.814;4.600;2023-05-17T11:08:13;5.22;;;1.17;;
75005;SDS011;63553;51.814;4.600;2023-05-17T11:11:06;3.63;;;1.25;;
75005;SDS011;63553;51.814;4.600;2023-05-17T11:13:44;3.17;;;1.33;;
75005;SDS011;63553;51.814;4.600;2023-05-17T11:16:25;4.78;;;1.52;;
75005;SDS011;63553;51.814;4.600;2023-05-17T11:19:04;8.00;;;1.50;;
75005;SDS011;63553;51.814;4.600;2023-05-17T11:21:31;5.75;;;1.63;;
75005;SDS011;63553;51.814;4.600;2023-05-17T11:23:58;8.10;;;1.65;;
75005;SDS011;63553;51.814;4.600;2023-05-17T11:26:27;4.72;;;1.67;;
75005;SDS011;63553;51.814;4.600;2023-05-17T11:29:00;2.97;;;1.10;;
75005;SDS011;63553;51.814;4.600;2023-05-17T11:31:31;3.97;;;1.23;;
75005;SDS011;63553;51.814;4.600;2023-05-17T11:33:57;2.38;;;1.00;;
75005;SDS011;63553;51.814;4.600;2023-05-17T11:36:24;4.38;;;1.20;;
75005;SDS011;63553;51.814;4.600;2023-05-17T11:38:50;13.63;;;1.95;;
75005;SDS011;63553;51.814;4.600;2023-05-17T11:41:37;4.63;;;1.40;;
75005;SDS011;63553;51.814;4.600;2023-05-17T11:44:05;5.95;;;1.40;;
75005;SDS011;63553;51.814;4.600;2023-05-17T11:46:32;4.78;;;1.40;;
75005;SDS011;63553;51.814;4.600;2023-05-17T11:48:57;3.15;;;1.40;;
75005;SDS011;63553;51.814;4.600;2023-05-17T11:51:24;5.05;;;1.27;;
75005;SDS011;63553;51.814;4.600;2023-05-17T11:53:49;4.00;;;1.25;;
75005;SDS011;63553;51.814;4.600;2023-05-17T11:56:15;3.95;;;1.65;;
75005;SDS011;63553;51.814;4.600;2023-05-17T11:58:42;2.38;;;1.20;;
75005;SDS011;63553;51.814;4.600;2023-05-17T12:01:07;4.38;;;1.30;;
75005;SDS011;63553;51.814;4.600;2023-05-17T12:03:33;3.95;;;1.10;;
75005;SDS011;63553;51.814;4.600;2023-05-17T12:06:11;3.10;;;1.20;;
75005;SDS011;63553;51.814;4.600;2023-05-17T12:08:39;4.07;;;1.23;;
75005;SDS011;63553;51.814;4.600;2023-05-17T12:11:13;2.00;;;1.00;;
75005;SDS011;63553;51.814;4.600;2023-05-17T12:13:41;4.13;;;1.20;;
75005;SDS011;63553;51.814;4.600;2023-05-17T12:16:14;4.85;;;1.27;;
75005;SDS011;63553;51.814;4.600;2023-05-17T12:18:45;3.22;;;1.20;;
75005;SDS011;63553;51.814;4.600;2023-05-17T12:21:12;3.55;;;1.30;;
75005;SDS011;63553;51.814;4.600;2023-05-17T12:23:39;4.13;;;1.10;;
75005;SDS011;63553;51.814;4.600;2023-05-17T12:26:10;2.97;;;1.33;;
75005;SDS011;63553;51.814;4.600;2023-05-17T12:28:38;7.05;;;1.58;;
75005;SDS011;63553;51.814;4.600;2023-05-17T12:31:08;2.05;;;0.98;;
75005;SDS011;63553;51.814;4.600;2023-05-17T12:33:37;6.18;;;1.20;;
75005;SDS011;63553;51.814;4.600;2023-05-17T12:36:05;2.03;;;1.00;;
75005;SDS011;63553;51.814;4.600;2023-05-17T12:38:32;4.93;;;1.33;;
75005;SDS011;63553;51.814;4.600;2023-05-17T12:41:05;3.70;;;0.95;;
75005;SDS011;63553;51.814;4.600;2023-05-17T12:43:38;2.50;;;1.05;;
75005;SDS011;63553;51.814;4.600;2023-05-17T12:46:08;3.95;;;1.40;;
75005;SDS011;63553;51.814;4.600;2023-05-17T12:48:36;2.38;;;1.00;;
75005;SDS011;63553;51.814;4.600;2023-05-17T12:51:08;2.50;;;1.08;;
75005;SDS011;63553;51.814;4.600;2023-05-17T12:53:36;3.35;;;1.33;;
75005;SDS011;63553;51.814;4.600;2023-05-17T12:56:06;1.90;;;1.27;;
75005;SDS011;63553;51.814;4.600;2023-05-17T12:58:33;4.00;;;1.30;;
75005;SDS011;63553;51.814;4.600;2023-05-17T13:01:02;2.92;;;1.00;;
75005;SDS011;63553;51.814;4.600;2023-05-17T13:03:31;10.38;;;2.95;;
75005;SDS011;63553;51.814;4.600;2023-05-17T13:05:58;2.70;;;1.30;;
75005;SDS011;63553;51.814;4.600;2023-05-17T13:08:28;2.90;;;1.13;;
75005;SDS011;63553;51.814;4.600;2023-05-17T13:11:03;4.40;;;1.20;;
75005;SDS011;63553;51.814;4.600;2023-05-17T13:13:31;4.10;;;1.17;;
75005;SDS011;63553;51.814;4.600;2023-05-17T13:15:57;4.40;;;1.42;;
75005;SDS011;63553;51.814;4.600;2023-05-17T13:18:22;5.53;;;1.20;;
75005;SDS011;63553;51.814;4.600;2023-05-17T13:20:48;3.65;;;1.23;;
75005;SDS011;63553;51.814;4.600;2023-05-17T13:23:15;2.38;;;1.17;;
75005;SDS011;63553;51.814;4.600;2023-05-17T13:25:40;2.60;;;1.40;;
75005;SDS011;63553;51.814;4.600;2023-05-17T13:28:06;5.07;;;1.45;;
75005;SDS011;63553;51.814;4.600;2023-05-17T13:30:31;3.97;;;1.23;;
75005;SDS011;63553;51.814;4.600;2023-05-17T13:32:56;3.78;;;1.35;;
75005;SDS011;63553;51.814;4.600;2023-05-17T13:35:22;2.22;;;1.35;;
75005;SDS011;63553;51.814;4.600;2023-05-17T13:37:47;2.90;;;1.20;;
75005;SDS011;63553;51.814;4.600;2023-05-17T13:40:13;2.53;;;1.20;;
75005;SDS011;63553;51.814;4.600;2023-05-17T13:42:38;5.65;;;1.52;;
75005;SDS011;63553;51.814;4.600;2023-05-17T13:45:04;6.25;;;2.08;;
75005;SDS011;63553;51.814;4.600;2023-05-17T13:47:32;4.25;;;1.70;;
75005;SDS011;63553;51.814;4.600;2023-05-17T13:49:58;3.85;;;1.15;;
75005;SDS011;63553;51.814;4.600;2023-05-17T13:52:24;3.75;;;1.30;;
75005;SDS011;63553;51.814;4.600;2023-05-17T13:54:50;4.13;;;1.77;;
75005;SDS011;63553;51.814;4.600;2023-05-17T13:57:15;3.40;;;1.33;;
75005;SDS011;63553;51.814;4.600;2023-05-17T13:59:40;6.95;;;1.90;;
75005;SDS011;63553;51.814;4.600;2023-05-17T14:02:07;5.22;;;2.03;;
75005;SDS011;63553;51.814;4.600;2023-05-17T14:04:33;3.13;;;1.23;;
75005;SDS011;63553;51.814;4.600;2023-05-17T14:06:58;5.80;;;1.85;;
75005;SDS011;63553;51.814;4.600;2023-05-17T14:09:24;4.93;;;1.73;;
75005;SDS011;63553;51.814;4.600;2023-05-17T14:11:49;3.73;;;1.30;;
75005;SDS011;63553;51.814;4.600;2023-05-17T14:14:15;6.55;;;2.10;;
75005;SDS011;63553;51.814;4.600;2023-05-17T14:16:40;2.95;;;1.40;;
75005;SDS011;63553;51.814;4.600;2023-05-17T14:19:05;4.10;;;1.60;;
75005;SDS011;63553;51.814;4.600;2023-05-17T14:21:31;2.22;;;1.23;;
75005;SDS011;63553;51.814;4.600;2023-05-17T14:23:56;4.28;;;1.00;;
75005;SDS011;63553;51.814;4.600;2023-05-17T14:26:21;3.90;;;1.47;;
75005;SDS011;63553;51.814;4.600;2023-05-17T14:28:47;5.60;;;1.42;;
75005;SDS011;63553;51.814;4.600;2023-05-17T14:31:12;4.03;;;1.60;;
75005;SDS011;63553;51.814;4.600;2023-05-17T14:33:38;7.90;;;1.80;;
75005;SDS011;63553;51.814;4.600;2023-05-17T14:36:03;3.92;;;1.50;;
75005;SDS011;63553;51.814;4.600;2023-05-17T14:38:29;3.30;;;1.50;;
75005;SDS011;63553;51.814;4.600;2023-05-17T14:40:54;5.05;;;1.50;;
75005;SDS011;63553;51.814;4.600;2023-05-17T14:43:20;4.63;;;2.45;;
75005;SDS011;63553;51.814;4.600;2023-05-17T14:45:45;3.80;;;1.52;;
75005;SDS011;63553;51.814;4.600;2023-05-17T14:48:11;1.73;;;1.42;;
75005;SDS011;63553;51.814;4.600;2023-05-17T14:50:36;4.90;;;1.47;;
75005;SDS011;63553;51.814;4.600;2023-05-17T14:53:01;5.37;;;1.50;;
75005;SDS011;63553;51.814;4.600;2023-05-17T14:55:27;5.63;;;1.90;;
75005;SDS011;63553;51.814;4.600;2023-05-17T14:57:52;5.35;;;1.67;;